createdAt,value
2018-10-09T00:02:16.022Z,83.20
2018-10-09T00:04:44.236Z,83.40
2018-10-09T00:07:12.614Z,83.10
2018-10-09T00:09:41.037Z,83.00
2018-10-09T00:12:09.331Z,82.90
2018-10-09T00:14:37.657Z,82.50
2018-10-09T00:17:06.146Z,82.30
2018-10-09T00:19:34.369Z,82.60
2018-10-09T00:22:02.664Z,82.50
2018-10-09T00:24:30.866Z,82.40
2018-10-09T00:26:59.085Z,82.70
2018-10-09T00:29:27.295Z,82.60
2018-10-09T00:31:55.588Z,82.70
2018-10-09T00:34:23.774Z,83.10
2018-10-09T00:36:52.015Z,83.00
2018-10-09T00:39:20.263Z,83.30
2018-10-09T00:41:48.499Z,83.50
2018-10-09T00:44:16.773Z,83.60
2018-10-09T00:46:44.985Z,83.90
2018-10-09T00:49:13.245Z,83.90
2018-10-09T00:51:41.464Z,83.90
2018-10-09T00:54:09.641Z,84.20
2018-10-09T00:56:37.875Z,84.80
2018-10-09T00:59:06.189Z,85.10
2018-10-09T01:01:34.361Z,85.20
2018-10-09T01:04:02.679Z,85.30
2018-10-09T01:06:30.919Z,85.80
2018-10-09T01:08:59.151Z,86.30
2018-10-09T01:11:27.339Z,86.10
2018-10-09T01:13:55.540Z,86.70
2018-10-09T01:16:23.830Z,86.80
2018-10-09T01:18:52.031Z,87.20
2018-10-09T01:21:20.273Z,87.20
2018-10-09T01:23:48.457Z,87.40
2018-10-09T01:26:16.675Z,88.00
2018-10-09T01:28:44.949Z,88.00
2018-10-09T01:31:13.167Z,88.10
2018-10-09T01:33:41.385Z,88.10
2018-10-09T01:36:09.580Z,88.20
2018-10-09T01:38:37.764Z,88.70
2018-10-09T01:41:06.043Z,89.00
2018-10-09T01:43:34.277Z,89.10
2018-10-09T01:46:02.525Z,89.40
2018-10-09T01:48:30.732Z,89.80
2018-10-09T01:50:58.927Z,89.70
2018-10-09T01:53:27.200Z,89.80
2018-10-09T01:55:55.481Z,89.70
2018-10-09T01:58:23.805Z,89.30
2018-10-09T02:00:52.099Z,88.90
2018-10-09T02:03:20.455Z,88.90
2018-10-09T02:05:48.871Z,89.30
2018-10-09T02:08:17.371Z,89.50
2018-10-09T02:10:45.613Z,89.70
2018-10-09T02:13:13.891Z,89.60
2018-10-09T02:15:42.137Z,89.50
2018-10-09T02:18:10.447Z,89.70
2018-10-09T02:20:38.709Z,89.80
2018-10-09T02:23:06.977Z,90.00
2018-10-09T02:25:35.511Z,90.00
2018-10-09T02:28:03.965Z,89.80
2018-10-09T02:30:32.383Z,89.20
2018-10-09T02:33:00.942Z,89.60
2018-10-09T02:35:29.229Z,89.80
2018-10-09T02:37:57.706Z,89.90
2018-10-09T02:40:26.095Z,90.00
2018-10-09T02:42:54.393Z,90.20
2018-10-09T02:45:22.935Z,90.30
2018-10-09T02:47:51.172Z,90.40
2018-10-09T02:50:19.555Z,90.70
2018-10-09T02:52:47.811Z,90.70
2018-10-09T02:55:16.194Z,91.10
2018-10-09T02:57:44.404Z,91.30
2018-10-09T03:00:12.640Z,91.30
2018-10-09T03:02:40.842Z,91.30
2018-10-09T03:05:09.295Z,91.50
2018-10-09T03:07:37.469Z,91.70
2018-10-09T03:10:06.257Z,91.70
2018-10-09T03:12:34.460Z,91.80
2018-10-09T03:15:02.674Z,92.00
2018-10-09T03:17:30.904Z,92.00
2018-10-09T03:19:59.096Z,91.80
2018-10-09T03:22:27.500Z,91.90
2018-10-09T03:24:55.710Z,91.90
2018-10-09T03:27:23.847Z,92.00
2018-10-09T03:29:52.060Z,92.00
2018-10-09T03:32:20.228Z,92.20
2018-10-09T03:34:48.434Z,92.20
2018-10-09T03:37:16.610Z,92.00
2018-10-09T03:39:44.794Z,92.00
2018-10-09T03:42:13.012Z,92.00
2018-10-09T03:44:41.238Z,92.00
2018-10-09T03:47:09.440Z,92.10
2018-10-09T03:49:37.622Z,92.20
2018-10-09T03:52:05.927Z,92.20
2018-10-09T03:54:34.140Z,92.10
2018-10-09T03:57:02.377Z,92.00
2018-10-09T03:59:30.556Z,91.90
2018-10-09T04:01:58.821Z,91.90
2018-10-09T04:04:27.061Z,91.80
2018-10-09T04:06:56.231Z,91.70
2018-10-09T04:09:24.521Z,91.60
2018-10-09T04:11:52.711Z,91.60
2018-10-09T04:14:20.893Z,91.50
2018-10-09T04:16:49.099Z,91.40
2018-10-09T04:19:17.307Z,91.30
2018-10-09T04:21:45.439Z,91.10
2018-10-09T04:24:13.657Z,91.00
2018-10-09T04:26:41.881Z,91.00
2018-10-09T04:29:10.093Z,91.00
2018-10-09T04:31:38.323Z,91.10
2018-10-09T04:34:07.465Z,91.10
2018-10-09T04:36:35.699Z,91.30
2018-10-09T04:39:05.977Z,91.40
2018-10-09T04:41:34.244Z,91.50
2018-10-09T04:44:03.073Z,91.50
2018-10-09T04:46:33.007Z,91.50
2018-10-09T04:49:01.269Z,91.70
2018-10-09T04:51:29.473Z,91.70
2018-10-09T04:53:57.635Z,91.80
2018-10-09T04:56:25.846Z,92.00
2018-10-09T04:58:54.051Z,91.70
2018-10-09T05:03:57.103Z,91.80
2018-10-09T05:06:25.303Z,92.00
2018-10-09T05:08:53.536Z,92.10
2018-10-09T05:11:21.713Z,92.40
2018-10-09T05:13:50.021Z,93.00
2018-10-09T05:16:18.259Z,93.10
2018-10-09T05:18:46.451Z,93.30
2018-10-09T05:21:14.628Z,93.20
2018-10-09T05:23:42.946Z,93.30
2018-10-09T05:26:11.123Z,93.80
2018-10-09T05:28:39.317Z,93.70
2018-10-09T05:31:07.585Z,93.80
2018-10-09T05:33:35.758Z,94.10
2018-10-09T05:36:03.956Z,93.90
2018-10-09T05:38:32.161Z,93.90
2018-10-09T05:41:00.333Z,93.90
2018-10-09T05:43:28.567Z,94.00
2018-10-09T05:45:56.804Z,93.90
2018-10-09T05:48:24.955Z,93.80
2018-10-09T05:50:53.153Z,93.80
2018-10-09T05:53:21.440Z,93.90
2018-10-09T05:55:49.654Z,93.90
2018-10-09T05:58:17.795Z,93.80
2018-10-09T06:00:46.041Z,93.90
2018-10-09T06:03:14.302Z,94.20
2018-10-09T06:05:42.478Z,94.20
2018-10-09T06:08:10.689Z,94.20
2018-10-09T06:10:38.875Z,94.20
2018-10-09T06:13:07.280Z,94.10
2018-10-09T06:15:35.614Z,94.10
2018-10-09T06:18:03.731Z,94.00
2018-10-09T06:20:31.944Z,94.00
2018-10-09T06:23:00.215Z,94.20
2018-10-09T06:25:28.399Z,94.40
2018-10-09T06:27:56.715Z,94.40
2018-10-09T06:30:24.871Z,94.40
2018-10-09T06:32:53.083Z,94.50
2018-10-09T06:35:21.313Z,94.60
2018-10-09T06:37:49.504Z,94.70
2018-10-09T06:40:17.741Z,94.20
2018-10-09T06:42:45.960Z,94.10
2018-10-09T06:45:14.173Z,93.90
2018-10-09T06:47:42.423Z,93.80
2018-10-09T06:50:10.523Z,93.60
2018-10-09T06:52:38.757Z,93.20
2018-10-09T06:55:07.002Z,93.30
2018-10-09T06:57:35.197Z,92.90
2018-10-09T07:00:03.449Z,92.50
2018-10-09T07:02:31.687Z,92.50
2018-10-09T07:04:59.855Z,92.10
2018-10-09T07:07:28.021Z,92.00
2018-10-09T07:09:56.195Z,91.70
2018-10-09T07:12:24.639Z,91.60
2018-10-09T07:14:52.811Z,91.40
2018-10-09T07:17:20.949Z,91.30
2018-10-09T07:19:49.129Z,91.30
2018-10-09T07:24:51.935Z,91.00
2018-10-09T07:27:20.093Z,90.90
2018-10-09T07:29:48.473Z,90.40
2018-10-09T07:32:16.647Z,89.50
2018-10-09T07:34:44.851Z,88.70
2018-10-09T07:37:13.094Z,88.00
2018-10-09T07:39:41.265Z,87.70
2018-10-09T07:42:09.441Z,86.90
2018-10-09T07:44:37.630Z,85.60
2018-10-09T07:47:05.891Z,85.80
2018-10-09T07:49:34.073Z,84.80
2018-10-09T07:52:02.348Z,83.40
2018-10-09T07:54:30.618Z,82.00
2018-10-09T07:56:58.820Z,80.60
2018-10-09T07:59:27.032Z,80.30
2018-10-09T08:01:55.362Z,80.40
2018-10-09T08:04:23.553Z,80.20
2018-10-09T08:06:51.806Z,80.50
2018-10-09T08:09:20.015Z,81.20
2018-10-09T08:11:48.261Z,81.30
2018-10-09T08:14:16.459Z,82.10
2018-10-09T08:16:44.736Z,81.40
2018-10-09T08:19:12.976Z,81.20
2018-10-09T08:21:41.170Z,80.30
2018-10-09T08:24:09.363Z,80.00
2018-10-09T08:26:37.595Z,79.80
2018-10-09T08:29:05.838Z,79.50
2018-10-09T08:31:34.270Z,78.00
2018-10-09T08:34:02.535Z,77.30
2018-10-09T08:36:30.760Z,76.70
2018-10-09T08:38:59.018Z,75.80
2018-10-09T08:41:27.335Z,73.20
2018-10-09T08:43:55.590Z,71.40
2018-10-09T08:46:23.812Z,68.20
2018-10-09T08:48:52.041Z,65.70
2018-10-09T08:51:20.282Z,63.80
2018-10-09T08:53:48.462Z,63.40
2018-10-09T08:56:16.628Z,62.60
2018-10-09T08:58:44.840Z,62.50
2018-10-09T09:01:13.512Z,62.50
2018-10-09T09:03:41.760Z,61.60
2018-10-09T09:06:09.978Z,62.10
2018-10-09T09:08:38.218Z,62.70
2018-10-09T09:11:06.412Z,63.70
2018-10-09T09:13:34.606Z,64.60
2018-10-09T09:16:02.961Z,64.20
2018-10-09T09:18:31.157Z,64.80
2018-10-09T09:20:59.433Z,65.60
2018-10-09T09:23:27.560Z,66.20
2018-10-09T09:25:56.043Z,66.40
2018-10-09T09:28:24.271Z,67.50
2018-10-09T09:30:52.472Z,65.70
2018-10-09T09:33:20.757Z,63.40
2018-10-09T09:35:49.144Z,59.70
2018-10-09T09:38:17.346Z,57.20
2018-10-09T09:40:45.529Z,55.50
2018-10-09T09:43:20.562Z,54.00
2018-10-09T09:45:48.870Z,54.20
2018-10-09T09:48:17.149Z,53.10
2018-10-09T09:50:45.383Z,53.10
2018-10-09T09:53:13.671Z,51.60
2018-10-09T09:58:10.042Z,47.30
2018-10-09T10:00:43.491Z,47.90
2018-10-09T10:03:11.672Z,47.70
2018-10-09T10:05:39.844Z,46.80
2018-10-09T10:08:08.068Z,47.30
2018-10-09T10:10:36.324Z,48.30
2018-10-09T10:13:04.488Z,49.30
2018-10-09T10:15:32.666Z,48.80
2018-10-09T10:18:00.888Z,46.80
2018-10-09T10:20:29.102Z,46.00
2018-10-09T10:22:57.285Z,46.50
2018-10-09T10:25:25.494Z,47.30
2018-10-09T10:27:53.692Z,48.10
2018-10-09T10:30:21.896Z,47.80
2018-10-09T10:32:50.052Z,49.00
2018-10-09T10:35:18.306Z,49.70
2018-10-09T10:37:46.492Z,50.30
2018-10-09T10:40:14.744Z,49.90
2018-10-09T10:42:43.496Z,49.60
2018-10-09T10:45:11.690Z,48.50
2018-10-09T10:47:39.906Z,46.80
2018-10-09T10:50:08.105Z,46.50
2018-10-09T10:52:36.322Z,46.00
2018-10-09T10:55:04.962Z,46.20
2018-10-09T10:57:33.149Z,44.10
2018-10-09T11:00:01.319Z,43.40
2018-10-09T11:02:29.592Z,41.60
2018-10-09T11:04:57.796Z,41.90
2018-10-09T11:07:26.045Z,42.60
2018-10-09T11:09:54.264Z,42.50
2018-10-09T11:12:22.429Z,42.70
2018-10-09T11:14:50.793Z,42.70
2018-10-09T11:17:18.985Z,40.60
2018-10-09T11:19:47.185Z,41.00
2018-10-09T11:22:15.475Z,40.90
2018-10-09T11:24:43.625Z,41.60
2018-10-09T11:27:11.894Z,42.30
2018-10-09T11:32:08.129Z,42.20
2018-10-09T11:34:36.684Z,43.80
2018-10-09T11:37:04.987Z,44.60
2018-10-09T11:39:33.137Z,45.20
2018-10-09T11:42:01.393Z,45.60
2018-10-09T11:44:29.598Z,46.00
2018-10-09T11:46:57.823Z,45.90
2018-10-09T11:49:26.023Z,46.50
2018-10-09T11:51:54.265Z,46.80
2018-10-09T11:54:22.423Z,46.60
2018-10-09T11:56:50.630Z,46.60
2018-10-09T11:59:18.805Z,47.30
2018-10-09T12:01:47.036Z,47.50
2018-10-09T12:04:15.199Z,46.90
2018-10-09T12:06:43.367Z,46.40
2018-10-09T12:09:12.986Z,46.70
2018-10-09T12:11:41.931Z,46.30
2018-10-09T12:14:11.125Z,46.10
2018-10-09T12:16:39.362Z,45.20
2018-10-09T12:19:07.605Z,45.30
2018-10-09T12:21:36.041Z,43.20
2018-10-09T12:24:04.218Z,42.80
2018-10-09T12:26:32.425Z,43.50
2018-10-09T12:29:00.738Z,42.20
2018-10-09T12:31:28.898Z,42.00
2018-10-09T12:33:57.216Z,41.60
2018-10-09T12:36:25.566Z,40.50
2018-10-09T12:38:53.775Z,41.20
2018-10-09T12:41:22.146Z,41.00
2018-10-09T12:43:50.375Z,41.60
2018-10-09T12:46:18.596Z,42.80
2018-10-09T12:48:46.913Z,42.90
2018-10-09T12:51:15.428Z,42.80
2018-10-09T12:53:43.700Z,42.90
2018-10-09T12:56:11.927Z,43.40
2018-10-09T12:58:40.279Z,43.10
2018-10-09T13:01:08.536Z,43.00
2018-10-09T13:03:36.728Z,42.50
2018-10-09T13:06:05.004Z,43.00
2018-10-09T13:08:33.324Z,43.70
2018-10-09T13:11:01.512Z,43.50
2018-10-09T13:13:29.720Z,44.10
2018-10-09T13:15:57.892Z,44.50
2018-10-09T13:18:26.151Z,44.80
2018-10-09T13:20:54.461Z,45.50
2018-10-09T13:23:22.607Z,45.10
2018-10-09T13:25:50.812Z,45.00
2018-10-09T13:28:19.052Z,44.70
2018-10-09T13:30:47.227Z,44.50
2018-10-09T13:33:15.529Z,44.30
2018-10-09T13:35:43.735Z,44.10
2018-10-09T13:38:11.990Z,44.70
2018-10-09T13:40:40.113Z,44.50
2018-10-09T13:43:08.361Z,44.90
2018-10-09T13:45:36.601Z,44.70
2018-10-09T13:48:04.796Z,44.90
2018-10-09T13:50:33.048Z,44.70
2018-10-09T13:53:01.187Z,44.80
2018-10-09T13:55:29.403Z,44.70
2018-10-09T13:57:57.603Z,45.40
2018-10-09T14:00:25.833Z,45.50
2018-10-09T14:02:54.197Z,45.50
2018-10-09T14:05:22.389Z,45.80
2018-10-09T14:07:50.641Z,45.70
2018-10-09T14:10:18.886Z,45.60
2018-10-09T14:12:47.055Z,45.80
2018-10-09T14:15:15.291Z,46.10
2018-10-09T14:17:43.605Z,46.00
2018-10-09T14:20:11.779Z,46.40
2018-10-09T14:22:40.010Z,46.30
2018-10-09T14:25:08.117Z,46.80
2018-10-09T14:27:36.380Z,47.20
2018-10-09T14:30:04.825Z,47.60
2018-10-09T14:32:33.022Z,48.00
2018-10-09T14:35:01.328Z,48.50
2018-10-09T14:37:29.444Z,48.60
2018-10-09T14:39:57.620Z,49.20
2018-10-09T14:42:25.900Z,49.50
2018-10-09T14:44:54.135Z,49.70
2018-10-09T14:47:22.325Z,50.20
2018-10-09T14:49:50.541Z,50.80
2018-10-09T14:52:18.821Z,51.10
2018-10-09T14:54:47.030Z,51.40
2018-10-09T14:57:15.196Z,52.20
2018-10-09T14:59:43.411Z,52.30
2018-10-09T15:02:11.666Z,52.80
2018-10-09T15:04:39.846Z,52.90
2018-10-09T15:07:08.558Z,52.90
2018-10-09T15:09:36.779Z,52.80
2018-10-09T15:12:05.065Z,53.10
2018-10-09T15:14:33.357Z,53.40
2018-10-09T15:17:01.661Z,53.50
2018-10-09T15:19:29.776Z,53.70
2018-10-09T15:21:58.048Z,53.80
2018-10-09T15:24:26.350Z,54.00
2018-10-09T15:26:54.520Z,54.50
2018-10-09T15:29:22.685Z,55.10
2018-10-09T15:31:50.914Z,55.10
2018-10-09T15:34:19.121Z,55.40
2018-10-09T15:36:47.385Z,55.60
2018-10-09T15:39:15.662Z,55.80
2018-10-09T15:41:43.914Z,56.10
2018-10-09T15:44:12.104Z,56.40
2018-10-09T15:46:40.363Z,56.60
2018-10-09T15:49:08.570Z,56.80
2018-10-09T15:51:36.821Z,57.30
2018-10-09T15:54:05.028Z,57.40
2018-10-09T15:56:33.347Z,57.60
2018-10-09T15:59:01.513Z,57.80
2018-10-09T16:01:29.782Z,58.10
2018-10-09T16:03:57.987Z,58.50
2018-10-09T16:06:26.198Z,59.00
2018-10-09T16:08:54.399Z,59.40
2018-10-09T16:11:22.707Z,60.00
2018-10-09T16:13:50.951Z,60.90
2018-10-09T16:16:30.309Z,61.10
2018-10-09T16:18:58.509Z,61.90
2018-10-09T16:21:26.845Z,62.70
2018-10-09T16:23:55.063Z,63.00
2018-10-09T16:26:23.223Z,63.60
2018-10-09T16:28:51.434Z,64.20
2018-10-09T16:31:19.765Z,65.30
2018-10-09T16:33:47.962Z,65.70
2018-10-09T16:36:16.155Z,66.20
2018-10-09T16:38:44.487Z,66.90
2018-10-09T16:41:12.711Z,66.80
2018-10-09T16:43:40.935Z,67.30
2018-10-09T16:46:15.588Z,68.20
2018-10-09T16:48:43.779Z,69.00
2018-10-09T16:51:12.000Z,69.60
2018-10-09T16:53:40.220Z,70.00
2018-10-09T16:56:08.713Z,70.50
2018-10-09T16:58:36.910Z,71.20
2018-10-09T17:01:05.121Z,71.70
2018-10-09T17:03:33.276Z,72.40
2018-10-09T17:06:01.504Z,72.80
2018-10-09T17:08:29.749Z,73.30
2018-10-09T17:10:57.965Z,74.40
2018-10-09T17:13:26.185Z,74.40
2018-10-09T17:15:54.425Z,75.20
2018-10-09T17:18:22.586Z,75.30
2018-10-09T17:20:50.818Z,75.80
2018-10-09T17:23:19.070Z,76.90
2018-10-09T17:25:47.265Z,77.80
2018-10-09T17:28:15.637Z,78.80
2018-10-09T17:30:43.853Z,79.50
2018-10-09T17:33:12.324Z,79.90
2018-10-09T17:35:40.516Z,80.20
2018-10-09T17:38:08.766Z,81.00
2018-10-09T17:40:37.070Z,81.70
2018-10-09T17:43:05.319Z,82.10
2018-10-09T17:45:33.902Z,82.50
2018-10-09T17:48:02.165Z,83.10
2018-10-09T17:50:30.387Z,83.10
2018-10-09T17:52:58.655Z,83.70
2018-10-09T17:55:26.940Z,83.40
2018-10-09T17:57:55.167Z,83.40
2018-10-09T18:00:23.388Z,83.50
2018-10-09T18:02:51.622Z,83.80
2018-10-09T18:05:19.866Z,83.50
2018-10-09T18:07:48.051Z,83.70
2018-10-09T18:10:16.365Z,83.80
2018-10-09T18:12:44.694Z,84.40
2018-10-09T18:15:17.168Z,84.40
2018-10-09T18:17:45.629Z,84.60
2018-10-09T18:20:23.695Z,84.70
2018-10-09T18:22:54.326Z,85.00
2018-10-09T18:25:22.579Z,86.10
2018-10-09T18:27:50.874Z,85.90
2018-10-09T18:30:21.942Z,85.70
2018-10-09T18:32:50.718Z,85.60
2018-10-09T18:35:18.846Z,85.30
2018-10-09T18:37:47.731Z,85.30
2018-10-09T18:40:16.083Z,85.90
2018-10-09T18:42:44.509Z,86.30
2018-10-09T18:45:13.005Z,86.50
2018-10-09T18:47:42.327Z,86.20
2018-10-09T18:50:11.168Z,86.80
2018-10-09T18:52:40.187Z,86.90
2018-10-09T18:55:11.499Z,86.80
2018-10-09T18:57:39.833Z,86.90
2018-10-09T19:00:09.062Z,87.20
2018-10-09T19:02:38.701Z,87.20
2018-10-09T19:05:07.527Z,87.20
2018-10-09T19:07:35.906Z,87.60
2018-10-09T19:10:04.302Z,88.70
2018-10-09T19:12:32.575Z,88.40
2018-10-09T19:15:01.950Z,88.20
2018-10-09T19:17:35.235Z,88.50
2018-10-09T19:20:03.506Z,88.80
2018-10-09T19:22:31.781Z,88.70
2018-10-09T19:25:00.387Z,88.90
2018-10-09T19:27:34.741Z,89.00
2018-10-09T19:30:03.034Z,89.20
2018-10-09T19:32:31.419Z,89.10
2018-10-09T19:34:59.853Z,89.20
2018-10-09T19:37:28.179Z,89.40
2018-10-09T19:39:56.525Z,89.80
2018-10-09T19:42:24.887Z,89.80
2018-10-09T19:44:53.192Z,89.90
2018-10-09T19:47:21.544Z,90.10
2018-10-09T19:49:49.806Z,90.30
2018-10-09T19:52:18.196Z,90.50
2018-10-09T19:54:46.712Z,90.70
2018-10-09T19:57:15.141Z,90.70
2018-10-09T19:59:43.438Z,90.70
2018-10-09T20:02:11.826Z,90.40
2018-10-09T20:04:40.300Z,90.30
2018-10-09T20:07:08.606Z,90.10
2018-10-09T20:09:36.898Z,90.20
2018-10-09T20:12:05.229Z,90.10
2018-10-09T20:14:33.616Z,90.20
2018-10-09T20:17:01.756Z,90.10
2018-10-09T20:19:30.018Z,90.10
2018-10-09T20:21:58.641Z,90.30
2018-10-09T20:24:26.932Z,90.40
2018-10-09T20:26:55.204Z,90.20
2018-10-09T20:29:23.556Z,90.80
2018-10-09T20:31:51.837Z,90.60
2018-10-09T20:34:20.142Z,90.60
2018-10-09T20:36:48.356Z,90.40
2018-10-09T20:39:16.715Z,90.40
2018-10-09T20:41:45.032Z,90.40
2018-10-09T20:44:13.369Z,90.40
2018-10-09T20:46:41.628Z,90.50
2018-10-09T20:49:10.054Z,90.60
2018-10-09T20:51:38.525Z,90.70
2018-10-09T20:54:06.900Z,90.80
2018-10-09T20:56:35.246Z,90.80
2018-10-09T20:59:05.042Z,90.80
2018-10-09T21:01:33.335Z,90.90
2018-10-09T21:04:01.712Z,91.40
2018-10-09T21:06:29.971Z,91.60
2018-10-09T21:08:58.214Z,91.70
2018-10-09T21:11:26.510Z,91.70
2018-10-09T21:13:54.758Z,91.80
2018-10-09T21:16:23.110Z,91.50
2018-10-09T21:18:51.386Z,91.50
2018-10-09T21:21:19.637Z,91.50
2018-10-09T21:23:47.975Z,91.70
2018-10-09T21:26:16.524Z,91.70
2018-10-09T21:28:44.804Z,91.80
2018-10-09T21:31:13.174Z,92.00
2018-10-09T21:33:41.402Z,92.20
2018-10-09T21:36:09.652Z,92.10
2018-10-09T21:38:37.917Z,92.10
2018-10-09T21:41:06.171Z,92.20
2018-10-09T21:43:34.397Z,92.60
2018-10-09T21:46:02.770Z,93.00
2018-10-09T21:48:31.083Z,93.10
2018-10-09T21:50:59.337Z,93.40
2018-10-09T21:53:27.676Z,93.40
2018-10-09T21:55:55.922Z,93.40
2018-10-09T21:58:24.176Z,93.60
2018-10-09T22:00:57.895Z,93.50
2018-10-09T22:03:26.204Z,93.70
2018-10-09T22:05:54.491Z,93.80
2018-10-09T22:08:22.729Z,94.00
2018-10-09T22:10:51.151Z,93.90
2018-10-09T22:13:19.500Z,94.10
2018-10-09T22:15:47.801Z,94.40
2018-10-09T22:18:16.146Z,94.30
2018-10-09T22:20:44.414Z,94.30
2018-10-09T22:23:12.637Z,94.20
2018-10-09T22:25:41.001Z,94.40
2018-10-09T22:28:09.189Z,94.70
2018-10-09T22:30:37.468Z,94.70
2018-10-09T22:33:05.842Z,94.70
2018-10-09T22:35:34.080Z,94.70
2018-10-09T22:38:02.298Z,95.00
2018-10-09T22:40:30.526Z,95.30
2018-10-09T22:42:58.838Z,95.20
2018-10-09T22:45:27.120Z,95.20
2018-10-09T22:47:55.329Z,95.30
2018-10-09T22:50:23.520Z,95.50
2018-10-09T22:52:51.846Z,95.60
2018-10-09T22:55:20.096Z,95.80
2018-10-09T22:57:48.398Z,95.80
2018-10-09T23:00:16.596Z,95.90
2018-10-09T23:02:44.866Z,95.50
2018-10-09T23:05:13.122Z,95.40
2018-10-09T23:07:41.518Z,95.60
2018-10-09T23:10:09.672Z,95.60
2018-10-09T23:12:38.014Z,95.60
2018-10-09T23:15:06.924Z,96.00
2018-10-09T23:17:35.462Z,96.00
2018-10-09T23:20:03.838Z,95.90
2018-10-09T23:22:32.132Z,96.10
2018-10-09T23:25:00.352Z,96.10
2018-10-09T23:27:28.627Z,96.10
2018-10-09T23:29:56.843Z,96.20
2018-10-09T23:32:25.058Z,96.10
2018-10-09T23:34:53.304Z,96.10
2018-10-09T23:37:21.651Z,96.10
2018-10-09T23:39:49.829Z,96.10
2018-10-09T23:42:18.392Z,96.10
2018-10-09T23:44:46.568Z,96.20
2018-10-09T23:47:14.772Z,96.20
2018-10-09T23:49:42.981Z,96.30
2018-10-09T23:52:11.302Z,96.30
2018-10-09T23:54:39.510Z,96.30
2018-10-09T23:57:07.734Z,96.30
2018-10-09T23:59:35.911Z,96.40
